createdAt,value
2022-09-24T00:01:26.255Z,99296.09
2022-09-24T00:03:54.963Z,99289.19
2022-09-24T00:06:22.375Z,99295.22
2022-09-24T00:08:50.529Z,99284.81
2022-09-24T00:11:21.014Z,99293.53
2022-09-24T00:13:48.593Z,99289.12
2022-09-24T00:16:16.549Z,99289.03
2022-09-24T00:18:44.362Z,99285.66
2022-09-24T00:21:14.367Z,99282.94
2022-09-24T00:23:41.513Z,99287.38
2022-09-24T00:26:32.377Z,99291.59
2022-09-24T00:28:59.597Z,99281.03
2022-09-24T00:31:27.038Z,99290.75
2022-09-24T00:33:54.349Z,99290.16
2022-09-24T00:36:21.885Z,99293.41
2022-09-24T00:38:53.438Z,99292.75
2022-09-24T00:41:20.998Z,99295.44
2022-09-24T00:43:48.590Z,99290.28
2022-09-24T00:46:18.852Z,99282.47
2022-09-24T00:48:46.635Z,99286.66
2022-09-24T00:51:14.896Z,99279.84
2022-09-24T00:53:42.099Z,99276.37
2022-09-24T00:56:10.434Z,99281.50
2022-09-24T00:58:37.833Z,99270.28
2022-09-24T01:01:05.550Z,99276.34
2022-09-24T01:03:33.007Z,99268.66
2022-09-24T01:06:00.411Z,99263.28
2022-09-24T01:08:27.636Z,99268.53
2022-09-24T01:11:03.755Z,99265.88
2022-09-24T01:13:49.644Z,99266.91
2022-09-24T01:16:24.493Z,99266.06
2022-09-24T01:19:10.189Z,99259.09
2022-09-24T01:21:56.333Z,99259.06
2022-09-24T01:24:26.493Z,99252.13
2022-09-24T01:27:12.051Z,99253.91
2022-09-24T01:29:52.423Z,99254.87
2022-09-24T01:32:22.822Z,99251.25
2022-09-24T01:34:55.837Z,99253.03
2022-09-24T01:37:23.206Z,99248.59
2022-09-24T01:39:51.366Z,99248.63
2022-09-24T01:42:18.726Z,99238.97
2022-09-24T01:44:45.905Z,99241.44
2022-09-24T01:47:15.225Z,99238.03
2022-09-24T01:49:42.647Z,99229.44
2022-09-24T01:52:10.723Z,99228.75
2022-09-24T01:54:39.387Z,99230.41
2022-09-24T01:57:07.090Z,99237.38
2022-09-24T02:00:03.854Z,99230.50
2022-09-24T02:02:39.707Z,99237.34
2022-09-24T02:05:08.504Z,99230.41
2022-09-24T02:07:36.381Z,99240.22
2022-09-24T02:10:03.930Z,99234.94
2022-09-24T02:12:32.927Z,99236.44
2022-09-24T02:15:11.219Z,99233.78
2022-09-24T02:17:39.618Z,99237.25
2022-09-24T02:20:08.849Z,99238.16
2022-09-24T02:22:35.962Z,99234.62
2022-09-24T02:25:04.547Z,99238.97
2022-09-24T02:27:31.689Z,99236.41
2022-09-24T02:29:59.090Z,99235.75
2022-09-24T02:32:27.010Z,99245.28
2022-09-24T02:34:55.356Z,99239.06
2022-09-24T02:37:23.213Z,99238.94
2022-09-24T02:39:50.711Z,99251.97
2022-09-24T02:42:18.192Z,99237.06
2022-09-24T02:44:45.324Z,99235.31
2022-09-24T02:47:12.968Z,99229.97
2022-09-24T02:49:40.279Z,99233.50
2022-09-24T02:52:07.512Z,99235.22
2022-09-24T02:54:34.915Z,99241.44
2022-09-24T02:57:02.063Z,99238.87
2022-09-24T02:59:29.199Z,99239.63
2022-09-24T03:01:56.692Z,99240.63
2022-09-24T03:04:24.161Z,99234.41
2022-09-24T03:06:51.288Z,99232.69
2022-09-24T03:09:18.748Z,99227.38
2022-09-24T03:11:47.365Z,99230.87
2022-09-24T03:14:14.489Z,99228.31
2022-09-24T03:16:41.929Z,99224.97
2022-09-24T03:19:09.093Z,99221.34
2022-09-24T03:21:36.610Z,99214.28
2022-09-24T03:24:04.192Z,99210.91
2022-09-24T03:26:31.846Z,99214.59
2022-09-24T03:28:58.999Z,99215.41
2022-09-24T03:31:26.475Z,99204.97
2022-09-24T03:33:53.733Z,99207.44
2022-09-24T03:36:22.805Z,99205.75
2022-09-24T03:38:51.388Z,99210.16
2022-09-24T03:41:18.599Z,99209.28
2022-09-24T03:43:45.725Z,99210.94
2022-09-24T03:46:13.392Z,99205.66
2022-09-24T03:48:42.990Z,99197.84
2022-09-24T03:51:11.265Z,99196.88
2022-09-24T03:53:38.731Z,99192.75
2022-09-24T03:56:07.538Z,99194.56
2022-09-24T03:58:36.626Z,99194.50
2022-09-24T04:01:04.452Z,99194.53
2022-09-24T04:03:32.052Z,99194.66
2022-09-24T04:05:59.167Z,99197.34
2022-09-24T04:08:26.293Z,99194.69
2022-09-24T04:10:53.739Z,99197.28
2022-09-24T04:13:21.209Z,99199.88
2022-09-24T04:15:50.394Z,99201.53
2022-09-24T04:18:18.012Z,99197.06
2022-09-24T04:20:45.315Z,99194.38
2022-09-24T04:23:12.468Z,99192.75
2022-09-24T04:25:42.895Z,99200.59
2022-09-24T04:28:10.160Z,99200.78
2022-09-24T04:30:38.350Z,99199.81
2022-09-24T04:33:07.491Z,99199.75
2022-09-24T04:35:37.158Z,99209.31
2022-09-24T04:38:04.688Z,99200.50
2022-09-24T04:40:32.245Z,99198.22
2022-09-24T04:42:59.598Z,99198.13
2022-09-24T04:45:26.911Z,99196.31
2022-09-24T04:47:57.622Z,99204.28
2022-09-24T04:50:29.156Z,99206.75
2022-09-24T04:52:56.589Z,99210.22
2022-09-24T04:55:23.952Z,99206.69
2022-09-24T04:57:51.283Z,99213.53
2022-09-24T05:00:19.752Z,99209.22
2022-09-24T05:02:47.140Z,99210.91
2022-09-24T05:05:14.445Z,99203.00
2022-09-24T05:07:42.661Z,99201.09
2022-09-24T05:10:09.817Z,99194.88
2022-09-24T05:12:36.968Z,99183.25
2022-09-24T05:15:04.573Z,99187.56
2022-09-24T05:17:39.904Z,99183.94
2022-09-24T05:20:11.247Z,99189.22
2022-09-24T05:22:42.015Z,99198.03
2022-09-24T05:25:09.546Z,99187.47
2022-09-24T05:27:36.665Z,99192.69
2022-09-24T05:30:04.156Z,99187.84
2022-09-24T05:32:34.125Z,99190.78
2022-09-24T05:35:01.301Z,99195.13
2022-09-24T05:37:28.459Z,99187.16
2022-09-24T05:39:57.779Z,99195.13
2022-09-24T05:42:24.936Z,99189.75
2022-09-24T05:44:52.477Z,99188.78
2022-09-24T05:47:19.959Z,99185.84
2022-09-24T05:49:47.107Z,99185.31
2022-09-24T05:52:14.296Z,99191.56
2022-09-24T05:54:41.713Z,99200.09
2022-09-24T05:57:08.856Z,99200.25
2022-09-24T05:59:36.002Z,99205.94
2022-09-24T06:02:03.454Z,99209.09
2022-09-24T06:04:31.172Z,99213.44
2022-09-24T06:06:58.338Z,99211.53
2022-09-24T06:09:25.470Z,99205.12
2022-09-24T06:11:54.105Z,99212.94
2022-09-24T06:14:21.318Z,99199.41
2022-09-24T06:16:48.436Z,99211.47
2022-09-24T06:19:15.880Z,99209.81
2022-09-24T06:21:43.046Z,99214.84
2022-09-24T06:24:10.193Z,99218.41
2022-09-24T06:26:37.888Z,99219.06
2022-09-24T06:29:05.510Z,99213.44
2022-09-24T06:31:33.008Z,99219.09
2022-09-24T06:34:02.660Z,99229.25
2022-09-24T06:36:29.806Z,99226.59
2022-09-24T06:38:58.615Z,99220.12
2022-09-24T06:41:26.014Z,99238.69
2022-09-24T06:43:54.688Z,99231.97
2022-09-24T06:46:23.326Z,99220.31
2022-09-24T06:48:50.875Z,99216.84
2022-09-24T06:51:18.030Z,99228.50
2022-09-24T06:53:45.163Z,99216.53
2022-09-24T06:56:12.753Z,99224.66
2022-09-24T06:58:39.898Z,99228.63
2022-09-24T07:01:07.147Z,99229.13
2022-09-24T07:03:35.008Z,99232.09
2022-09-24T07:06:03.556Z,99225.91
2022-09-24T07:08:30.774Z,99233.44
2022-09-24T07:10:58.258Z,99235.72
2022-09-24T07:13:25.385Z,99250.94
2022-09-24T07:15:52.954Z,99244.50
2022-09-24T07:18:20.598Z,99243.44
2022-09-24T07:20:54.142Z,99251.69
2022-09-24T07:23:21.725Z,99257.75
2022-09-24T07:25:49.126Z,99254.06
2022-09-24T07:28:17.373Z,99254.19
2022-09-24T07:30:44.807Z,99250.00
2022-09-24T07:33:11.993Z,99248.75
2022-09-24T07:35:39.289Z,99253.37
2022-09-24T07:38:07.788Z,99262.16
2022-09-24T07:40:34.977Z,99258.31
2022-09-24T07:43:03.500Z,99266.22
2022-09-24T07:45:32.392Z,99265.16
2022-09-24T07:48:00.262Z,99259.75
2022-09-24T07:50:28.147Z,99263.34
2022-09-24T07:52:55.621Z,99261.47
2022-09-24T07:55:23.348Z,99267.50
2022-09-24T07:57:51.864Z,99263.78
2022-09-24T08:00:19.630Z,99257.53
2022-09-24T08:02:47.678Z,99260.50
2022-09-24T08:05:15.410Z,99264.41
2022-09-24T08:07:42.858Z,99261.66
2022-09-24T08:10:10.447Z,99258.94
2022-09-24T08:12:37.707Z,99259.31
2022-09-24T08:15:05.217Z,99254.69
2022-09-24T08:17:32.820Z,99248.16
2022-09-24T08:19:59.933Z,99250.78
2022-09-24T08:22:27.089Z,99257.31
2022-09-24T08:24:54.894Z,99244.94
2022-09-24T08:27:23.216Z,99250.06
2022-09-24T08:29:50.407Z,99240.84
2022-09-24T08:32:18.305Z,99232.97
2022-09-24T08:34:45.450Z,99229.53
2022-09-24T08:37:13.859Z,99234.34
2022-09-24T08:39:41.385Z,99222.72
2022-09-24T08:42:27.301Z,99230.87
2022-09-24T08:45:13.582Z,99231.87
2022-09-24T08:47:46.112Z,99228.94
2022-09-24T08:50:21.132Z,99232.78
2022-09-24T08:53:07.219Z,99226.25
2022-09-24T08:55:54.860Z,99223.13
2022-09-24T08:58:24.898Z,99222.41
2022-09-24T09:00:55.657Z,99237.31
2022-09-24T09:03:26.345Z,99234.84
2022-09-24T09:06:03.973Z,99229.03
2022-09-24T09:09:01.769Z,99221.81
2022-09-24T09:11:28.607Z,99212.62
2022-09-24T09:13:58.055Z,99215.53
2022-09-24T09:16:27.135Z,99217.28
2022-09-24T09:18:56.196Z,99208.56
2022-09-24T09:21:42.185Z,99217.63
2022-09-24T09:24:15.956Z,99210.38
2022-09-24T09:26:43.763Z,99204.66
2022-09-24T09:29:11.366Z,99202.13
2022-09-24T09:31:57.138Z,99212.69
2022-09-24T09:34:43.459Z,99205.31
2022-09-24T09:37:25.900Z,99209.31
2022-09-24T09:40:02.696Z,99203.81
2022-09-24T09:42:32.274Z,99188.88
2022-09-24T09:45:00.991Z,99198.59
2022-09-24T09:47:36.063Z,99194.06
2022-09-24T09:50:05.939Z,99190.19
2022-09-24T09:52:36.908Z,99187.41
2022-09-24T09:55:05.308Z,99191.13
2022-09-24T09:57:32.389Z,99196.78
2022-09-24T09:59:59.515Z,99195.44
2022-09-24T10:02:31.247Z,99194.72
2022-09-24T10:04:59.176Z,99197.66
2022-09-24T10:07:26.358Z,99184.31
2022-09-24T10:10:01.417Z,99188.72
2022-09-24T10:12:29.071Z,99189.25
2022-09-24T10:15:00.333Z,99181.16
2022-09-24T10:17:28.812Z,99175.53
2022-09-24T10:19:56.227Z,99170.75
2022-09-24T10:22:26.796Z,99173.69
2022-09-24T10:24:54.604Z,99167.63
2022-09-24T10:27:30.906Z,99163.78
2022-09-24T10:30:16.770Z,99162.59
2022-09-24T10:32:44.216Z,99161.16
2022-09-24T10:35:21.845Z,99159.91
2022-09-24T10:37:53.439Z,99155.03
2022-09-24T10:40:28.331Z,99147.16
2022-09-24T10:42:57.277Z,99140.69
2022-09-24T10:45:26.761Z,99146.91
2022-09-24T10:47:57.127Z,99155.44
2022-09-24T10:50:30.873Z,99145.75
2022-09-24T10:53:00.986Z,99153.47
2022-09-24T10:55:47.387Z,99144.50
2022-09-24T10:58:23.116Z,99154.91
2022-09-24T11:00:58.088Z,99151.12
2022-09-24T11:03:43.109Z,99164.63
2022-09-24T11:06:14.624Z,99155.66
2022-09-24T11:08:47.359Z,99143.56
2022-09-24T11:11:20.946Z,99151.88
2022-09-24T11:14:06.666Z,99138.38
2022-09-24T11:16:39.058Z,99142.38
2022-09-24T11:19:06.346Z,99139.41
2022-09-24T11:21:52.012Z,99134.72
2022-09-24T11:24:19.118Z,99116.78
2022-09-24T11:26:49.687Z,99112.09
2022-09-24T11:29:22.690Z,99117.56
2022-09-24T11:31:56.775Z,99112.06
2022-09-24T11:34:37.829Z,99124.44
2022-09-24T11:37:17.379Z,99123.97
2022-09-24T11:39:48.787Z,99112.69
2022-09-24T11:42:29.725Z,99106.56
2022-09-24T11:45:06.871Z,99104.56
2022-09-24T11:47:34.269Z,99096.41
2022-09-24T11:50:14.205Z,99105.38
2022-09-24T11:52:48.407Z,99093.16
2022-09-24T11:55:15.522Z,99099.31
2022-09-24T11:57:44.611Z,99100.44
2022-09-24T12:00:12.040Z,99088.16
2022-09-24T12:02:47.950Z,99099.31
2022-09-24T12:05:19.110Z,99085.41
2022-09-24T12:07:51.060Z,99082.78
2022-09-24T12:10:25.099Z,99092.72
2022-09-24T12:12:53.630Z,99091.19
2022-09-24T12:15:24.850Z,99089.31
2022-09-24T12:17:57.863Z,99092.56
2022-09-24T12:20:29.461Z,99083.16
2022-09-24T12:23:00.222Z,99081.72
2022-09-24T12:25:29.590Z,99072.63
2022-09-24T12:27:56.721Z,99089.09
2022-09-24T12:30:48.892Z,99074.06
2022-09-24T12:33:25.705Z,99085.13
2022-09-24T12:35:55.849Z,99075.25
2022-09-24T12:38:34.143Z,99067.62
2022-09-24T12:41:20.407Z,99086.66
2022-09-24T12:44:04.219Z,99069.88
2022-09-24T12:46:45.091Z,99072.34
2022-09-24T12:49:15.647Z,99069.53
2022-09-24T12:51:42.777Z,99069.44
2022-09-24T12:54:30.780Z,99070.38
2022-09-24T12:57:13.434Z,99070.63
2022-09-24T12:59:55.863Z,99065.00
2022-09-24T13:02:24.575Z,99058.50
2022-09-24T13:05:00.909Z,99054.94
2022-09-24T13:07:38.170Z,99051.25
2022-09-24T13:10:12.181Z,99041.37
2022-09-24T13:12:42.636Z,99048.56
2022-09-24T13:15:29.204Z,99057.56
2022-09-24T13:18:00.322Z,99048.37
2022-09-24T13:20:27.451Z,99064.78
2022-09-24T13:22:56.017Z,99057.03
2022-09-24T13:25:23.944Z,99052.94
2022-09-24T13:27:58.693Z,99039.41
2022-09-24T13:30:29.163Z,99036.66
2022-09-24T13:32:58.767Z,99050.53
2022-09-24T13:35:29.217Z,99049.16
2022-09-24T13:38:07.178Z,99046.53
2022-09-24T13:40:37.060Z,99044.97
2022-09-24T13:43:04.924Z,99044.47
2022-09-24T13:45:32.234Z,99034.94
2022-09-24T13:48:01.216Z,99043.31
2022-09-24T13:50:35.831Z,99032.91
2022-09-24T13:53:06.522Z,99035.91
2022-09-24T13:55:34.004Z,99035.06
2022-09-24T13:58:01.188Z,99022.03
2022-09-24T14:00:29.261Z,99018.03
2022-09-24T14:03:01.243Z,99028.75
2022-09-24T14:05:29.250Z,99020.03
2022-09-24T14:08:04.731Z,99029.66
2022-09-24T14:10:32.241Z,99026.78
2022-09-24T14:13:05.877Z,99030.75
2022-09-24T14:15:33.113Z,99028.09
2022-09-24T14:18:00.780Z,99043.69
2022-09-24T14:20:32.958Z,99034.13
2022-09-24T14:23:00.347Z,99025.50
2022-09-24T14:25:28.743Z,99031.19
2022-09-24T14:27:55.958Z,99024.47
2022-09-24T14:30:24.136Z,99027.81
2022-09-24T14:32:57.017Z,99025.28
2022-09-24T14:35:30.040Z,99020.22
2022-09-24T14:38:09.565Z,99020.81
2022-09-24T14:40:56.530Z,99021.72
2022-09-24T14:43:31.179Z,99011.00
2022-09-24T14:46:07.007Z,99020.56
2022-09-24T14:48:34.431Z,99008.91
2022-09-24T14:51:02.109Z,99012.50
2022-09-24T14:53:29.752Z,99024.87
2022-09-24T14:55:57.520Z,99019.03
2022-09-24T14:58:34.929Z,99017.91
2022-09-24T15:01:15.710Z,99017.22
2022-09-24T15:03:50.757Z,99014.31
2022-09-24T15:06:23.975Z,99009.00
2022-09-24T15:09:11.675Z,99011.75
2022-09-24T15:11:43.550Z,99012.63
2022-09-24T15:14:14.762Z,99008.81
2022-09-24T15:16:42.130Z,99013.53
2022-09-24T15:19:27.050Z,99023.63
2022-09-24T15:21:57.480Z,99013.72
2022-09-24T15:24:25.196Z,99015.28
2022-09-24T15:27:03.145Z,99011.25
2022-09-24T15:29:30.609Z,99012.13
2022-09-24T15:31:58.134Z,99014.41
2022-09-24T15:34:25.617Z,99009.34
2022-09-24T15:37:15.293Z,99008.19
2022-09-24T15:39:48.566Z,99008.28
2022-09-24T15:42:19.698Z,98999.88
2022-09-24T15:44:47.575Z,99004.53
2022-09-24T15:47:14.763Z,98999.34
2022-09-24T15:49:42.480Z,98994.22
2022-09-24T15:52:13.156Z,98989.03
2022-09-24T15:54:40.542Z,98995.78
2022-09-24T15:57:09.514Z,98992.19
2022-09-24T15:59:36.656Z,98989.81
2022-09-24T16:02:04.326Z,98991.28
2022-09-24T16:04:31.792Z,98994.66
2022-09-24T16:06:59.103Z,98987.34
2022-09-24T16:09:26.231Z,98995.09
2022-09-24T16:11:55.403Z,98994.19
2022-09-24T16:14:22.555Z,98996.19
2022-09-24T16:16:49.704Z,98990.25
2022-09-24T16:19:17.121Z,98999.81
2022-09-24T16:21:44.265Z,98992.84
2022-09-24T16:24:11.400Z,98996.56
2022-09-24T16:26:38.830Z,98995.63
2022-09-24T16:29:06.358Z,99004.16
2022-09-24T16:31:33.603Z,98991.62
2022-09-24T16:34:01.039Z,98982.88
2022-09-24T16:36:28.259Z,98983.84
2022-09-24T16:38:55.458Z,98983.09
2022-09-24T16:41:22.903Z,98982.09
2022-09-24T16:43:50.062Z,98983.84
2022-09-24T16:46:20.672Z,98980.59
2022-09-24T16:48:51.398Z,98993.19
2022-09-24T16:51:18.859Z,98980.31
2022-09-24T16:53:49.920Z,98980.72
2022-09-24T16:56:17.760Z,98980.97
2022-09-24T16:58:45.475Z,98986.09
2022-09-24T17:01:16.629Z,98989.06
2022-09-24T17:03:44.222Z,98980.37
2022-09-24T17:06:18.498Z,98981.75
2022-09-24T17:09:04.789Z,98989.78
2022-09-24T17:11:31.956Z,98987.84
2022-09-24T17:13:59.824Z,98991.91
2022-09-24T17:16:27.287Z,98994.44
2022-09-24T17:18:54.588Z,98993.72
2022-09-24T17:21:22.368Z,98987.53
2022-09-24T17:23:49.723Z,98991.72
2022-09-24T17:26:17.919Z,98994.00
2022-09-24T17:28:46.073Z,98996.34
2022-09-24T17:31:15.150Z,98989.16
2022-09-24T17:33:43.974Z,98993.81
2022-09-24T17:36:12.529Z,98994.13
2022-09-24T17:38:39.831Z,98996.19
2022-09-24T17:41:07.926Z,98992.91
2022-09-24T17:43:35.684Z,98996.19
2022-09-24T17:46:04.054Z,98994.09
2022-09-24T17:48:32.364Z,98990.84
2022-09-24T17:51:00.247Z,98997.81
2022-09-24T17:53:29.894Z,99000.13
2022-09-24T17:55:57.041Z,99001.06
2022-09-24T17:58:24.776Z,98999.06
2022-09-24T18:00:52.811Z,98996.66
2022-09-24T18:03:20.327Z,98997.28
2022-09-24T18:05:47.451Z,98999.56
2022-09-24T18:08:14.596Z,98999.78
2022-09-24T18:10:42.037Z,98999.88
2022-09-24T18:13:09.804Z,99002.13
2022-09-24T18:15:37.179Z,99010.28
2022-09-24T18:18:04.652Z,99000.66
2022-09-24T18:20:31.880Z,99008.66
2022-09-24T18:22:59.028Z,99012.47
2022-09-24T18:25:27.560Z,98998.12
2022-09-24T18:27:55.467Z,99008.09
2022-09-24T18:30:23.197Z,99011.91
2022-09-24T18:32:50.650Z,99011.06
2022-09-24T18:35:18.001Z,99003.94
2022-09-24T18:37:45.136Z,99006.94
2022-09-24T18:40:12.613Z,99003.72
2022-09-24T18:42:39.815Z,99000.31
2022-09-24T18:45:07.265Z,99005.00
2022-09-24T18:47:35.900Z,99002.91
2022-09-24T18:50:03.036Z,99006.16
2022-09-24T18:52:30.313Z,99008.94
2022-09-24T18:54:57.810Z,99013.66
2022-09-24T18:57:24.972Z,99011.25
2022-09-24T18:59:52.172Z,99012.63
2022-09-24T19:02:23.821Z,99011.25
2022-09-24T19:04:51.091Z,99018.66
2022-09-24T19:07:18.262Z,99019.09
2022-09-24T19:09:46.700Z,99010.81
2022-09-24T19:12:13.905Z,99019.81
2022-09-24T19:14:41.746Z,99008.19
2022-09-24T19:17:09.163Z,99014.91
2022-09-24T19:19:36.761Z,99018.37
2022-09-24T19:22:03.907Z,99007.81
2022-09-24T19:24:31.313Z,99008.56
2022-09-24T19:26:58.475Z,99011.47
2022-09-24T19:29:25.700Z,99012.22
2022-09-24T19:31:53.409Z,99011.84
2022-09-24T19:34:20.762Z,99000.38
2022-09-24T19:36:47.914Z,99009.06
2022-09-24T19:39:15.856Z,98999.31
2022-09-24T19:41:43.189Z,98996.56
2022-09-24T19:44:11.392Z,98999.62
2022-09-24T19:46:39.473Z,98992.12
2022-09-24T19:49:07.042Z,98991.69
2022-09-24T19:51:34.340Z,99001.47
2022-09-24T19:54:03.160Z,98998.94
2022-09-24T19:56:31.933Z,98999.97
2022-09-24T19:58:59.642Z,98996.47
2022-09-24T20:01:31.213Z,98997.22
2022-09-24T20:03:59.539Z,98990.06
2022-09-24T20:06:28.921Z,98994.34
2022-09-24T20:08:57.206Z,98998.84
2022-09-24T20:11:25.677Z,98986.28
2022-09-24T20:13:53.868Z,98994.53
2022-09-24T20:16:21.845Z,98999.38
2022-09-24T20:18:50.009Z,98993.63
2022-09-24T20:21:17.843Z,98996.88
2022-09-24T20:23:45.516Z,98995.69
2022-09-24T20:26:32.087Z,98993.47
2022-09-24T20:28:59.316Z,98998.91
2022-09-24T20:31:26.811Z,98985.13
2022-09-24T20:33:53.994Z,98989.91
2022-09-24T20:36:24.447Z,98988.91
2022-09-24T20:38:52.925Z,98986.00
2022-09-24T20:41:21.230Z,98987.75
2022-09-24T20:43:48.370Z,98988.31
2022-09-24T20:46:17.418Z,98992.91
2022-09-24T20:48:44.804Z,98993.72
2022-09-24T20:51:12.818Z,98981.47
2022-09-24T20:53:40.422Z,98989.34
2022-09-24T20:56:07.565Z,98983.12
2022-09-24T20:58:35.070Z,98981.09
2022-09-24T21:01:02.566Z,99000.66
2022-09-24T21:03:44.042Z,98983.28
2022-09-24T21:06:12.615Z,98986.59
2022-09-24T21:08:41.047Z,98976.88
2022-09-24T21:11:09.770Z,98978.16
2022-09-24T21:13:41.109Z,98984.44
2022-09-24T21:16:09.554Z,98982.16
2022-09-24T21:18:40.407Z,98979.63
2022-09-24T21:21:08.960Z,98991.16
2022-09-24T21:23:38.096Z,98981.53
2022-09-24T21:26:16.048Z,98982.69
2022-09-24T21:28:44.195Z,98979.00
2022-09-24T21:31:11.401Z,98984.34
2022-09-24T21:33:38.766Z,98990.81
2022-09-24T21:36:06.584Z,98988.37
2022-09-24T21:38:33.927Z,98988.75
2022-09-24T21:41:04.306Z,98991.28
2022-09-24T21:43:34.794Z,98989.94
2022-09-24T21:46:05.060Z,98986.00
2022-09-24T21:48:32.776Z,98985.44
2022-09-24T21:51:06.143Z,98986.87
2022-09-24T21:53:33.690Z,98991.22
2022-09-24T21:56:01.207Z,98984.34
2022-09-24T21:58:29.780Z,98988.53
2022-09-24T22:01:03.158Z,98988.59
2022-09-24T22:03:32.273Z,98978.19
2022-09-24T22:06:03.218Z,98989.09
2022-09-24T22:08:31.871Z,98988.44
2022-09-24T22:11:00.223Z,98993.00
2022-09-24T22:13:27.749Z,98987.03
2022-09-24T22:15:56.649Z,98989.41
2022-09-24T22:18:24.087Z,98981.13
2022-09-24T22:20:51.238Z,98973.38
2022-09-24T22:23:18.485Z,98973.28
2022-09-24T22:25:46.344Z,98976.97
2022-09-24T22:28:16.377Z,98978.22
2022-09-24T22:30:47.491Z,98973.75
2022-09-24T22:33:34.639Z,98959.28
2022-09-24T22:36:03.445Z,98965.13
2022-09-24T22:38:31.226Z,98974.16
2022-09-24T22:41:04.864Z,98968.03
2022-09-24T22:43:32.423Z,98970.09
2022-09-24T22:46:00.120Z,98963.03
2022-09-24T22:48:27.693Z,98959.59
2022-09-24T22:50:55.201Z,98967.75
2022-09-24T22:53:22.499Z,98949.94
2022-09-24T22:55:52.606Z,98963.31
2022-09-24T22:58:20.303Z,98955.50
2022-09-24T23:00:47.527Z,98961.69
2022-09-24T23:03:14.717Z,98965.94
2022-09-24T23:05:42.523Z,98957.09
2022-09-24T23:08:09.669Z,98955.94
2022-09-24T23:10:36.858Z,98960.88
2022-09-24T23:13:04.309Z,98962.72
2022-09-24T23:15:31.448Z,98968.12
2022-09-24T23:17:58.593Z,98959.06
2022-09-24T23:20:26.016Z,98958.13
2022-09-24T23:22:53.144Z,98957.16
2022-09-24T23:25:20.278Z,98956.41
2022-09-24T23:27:47.702Z,98964.63
2022-09-24T23:30:14.892Z,98964.50
2022-09-24T23:32:42.025Z,98956.22
2022-09-24T23:35:09.458Z,98960.59
2022-09-24T23:37:36.632Z,98953.62
2022-09-24T23:40:03.898Z,98957.09
2022-09-24T23:42:31.411Z,98958.41
2022-09-24T23:44:58.540Z,98946.63
2022-09-24T23:47:25.729Z,98947.00
2022-09-24T23:49:53.178Z,98945.47
2022-09-24T23:52:20.295Z,98948.03
2022-09-24T23:54:47.693Z,98953.78
2022-09-24T23:57:15.547Z,98956.81
2022-09-24T23:59:42.711Z,98949.16
